sensor_id;sensor_type;location;lat;lon;timestamp;temperature;humidity
63976;DHT22;50167;47.958;21.780;2023-04-21T00:00:07;9.24;60.91
63976;DHT22;50167;47.958;21.780;2023-04-21T00:02:35;9.14;61.23
63976;DHT22;50167;47.958;21.780;2023-04-21T00:05:03;9.07;61.72
63976;DHT22;50167;47.958;21.780;2023-04-21T00:07:30;8.99;61.75
63976;DHT22;50167;47.958;21.780;2023-04-21T00:09:56;8.94;62.40
63976;DHT22;50167;47.958;21.780;2023-04-21T00:12:22;9.73;64.63
63976;DHT22;50167;47.958;21.780;2023-04-21T00:14:48;11.42;63.18
63976;DHT22;50167;47.958;21.780;2023-04-21T00:17:14;12.04;54.98
63976;DHT22;50167;47.958;21.780;2023-04-21T00:19:40;11.40;54.58
63976;DHT22;50167;47.958;21.780;2023-04-21T00:22:07;10.79;56.13
63976;DHT22;50167;47.958;21.780;2023-04-21T00:24:35;10.32;57.55
63976;DHT22;50167;47.958;21.780;2023-04-21T00:27:01;10.00;58.42
63976;DHT22;50167;47.958;21.780;2023-04-21T00:29:28;9.73;58.98
63976;DHT22;50167;47.958;21.780;2023-04-21T00:31:54;9.52;59.93
63976;DHT22;50167;47.958;21.780;2023-04-21T00:34:22;9.37;60.56
63976;DHT22;50167;47.958;21.780;2023-04-21T00:36:49;9.22;61.24
63976;DHT22;50167;47.958;21.780;2023-04-21T00:39:15;9.06;61.80
63976;DHT22;50167;47.958;21.780;2023-04-21T00:41:42;8.94;62.00
63976;DHT22;50167;47.958;21.780;2023-04-21T00:44:08;8.83;62.30
63976;DHT22;50167;47.958;21.780;2023-04-21T00:46:36;9.58;63.15
63976;DHT22;50167;47.958;21.780;2023-04-21T00:49:05;11.14;62.13
63976;DHT22;50167;47.958;21.780;2023-04-21T00:51:35;12.15;54.31
63976;DHT22;50167;47.958;21.780;2023-04-21T00:54:06;11.61;54.02
63976;DHT22;50167;47.958;21.780;2023-04-21T00:56:34;10.84;56.05
63976;DHT22;50167;47.958;21.780;2023-04-21T00:59:01;10.31;57.39
63976;DHT22;50167;47.958;21.780;2023-04-21T01:01:30;9.87;58.84
63976;DHT22;50167;47.958;21.780;2023-04-21T01:03:57;9.58;60.18
63976;DHT22;50167;47.958;21.780;2023-04-21T01:06:27;9.35;60.76
63976;DHT22;50167;47.958;21.780;2023-04-21T01:08:54;9.20;61.44
63976;DHT22;50167;47.958;21.780;2023-04-21T01:11:20;9.04;61.31
63976;DHT22;50167;47.958;21.780;2023-04-21T01:13:46;8.94;62.19
63976;DHT22;50167;47.958;21.780;2023-04-21T01:16:17;8.86;62.07
63976;DHT22;50167;47.958;21.780;2023-04-21T01:18:44;8.80;62.96
63976;DHT22;50167;47.958;21.780;2023-04-21T01:21:11;9.87;63.03
63976;DHT22;50167;47.958;21.780;2023-04-21T01:23:39;11.48;65.03
63976;DHT22;50167;47.958;21.780;2023-04-21T01:26:05;12.62;58.87
63976;DHT22;50167;47.958;21.780;2023-04-21T01:28:33;12.66;54.68
63976;DHT22;50167;47.958;21.780;2023-04-21T01:30:59;11.76;54.56
63976;DHT22;50167;47.958;21.780;2023-04-21T01:33:26;11.04;55.70
63976;DHT22;50167;47.958;21.780;2023-04-21T01:35:53;10.56;57.30
63976;DHT22;50167;47.958;21.780;2023-04-21T01:38:21;10.15;58.14
63976;DHT22;50167;47.958;21.780;2023-04-21T01:40:52;9.86;59.22
63976;DHT22;50167;47.958;21.780;2023-04-21T01:43:21;9.56;59.98
63976;DHT22;50167;47.958;21.780;2023-04-21T01:45:47;9.34;60.88
63976;DHT22;50167;47.958;21.780;2023-04-21T01:48:14;9.12;61.80
63976;DHT22;50167;47.958;21.780;2023-04-21T01:50:41;8.96;61.85
63976;DHT22;50167;47.958;21.780;2023-04-21T01:53:08;8.80;62.78
63976;DHT22;50167;47.958;21.780;2023-04-21T01:55:34;9.66;65.67
63976;DHT22;50167;47.958;21.780;2023-04-21T01:58:01;11.22;65.35
63976;DHT22;50167;47.958;21.780;2023-04-21T02:00:27;12.26;57.50
63976;DHT22;50167;47.958;21.780;2023-04-21T02:02:53;11.90;55.27
63976;DHT22;50167;47.958;21.780;2023-04-21T02:05:19;11.08;56.37
63976;DHT22;50167;47.958;21.780;2023-04-21T02:07:46;10.46;57.58
63976;DHT22;50167;47.958;21.780;2023-04-21T02:10:12;9.98;58.66
63976;DHT22;50167;47.958;21.780;2023-04-21T02:12:38;9.62;60.14
63976;DHT22;50167;47.958;21.780;2023-04-21T02:15:06;9.32;61.21
63976;DHT22;50167;47.958;21.780;2023-04-21T02:17:33;9.06;62.06
63976;DHT22;50167;47.958;21.780;2023-04-21T02:19:59;8.86;63.02
63976;DHT22;50167;47.958;21.780;2023-04-21T02:22:25;9.83;62.24
63976;DHT22;50167;47.958;21.780;2023-04-21T02:24:51;11.17;58.59
63976;DHT22;50167;47.958;21.780;2023-04-21T02:27:18;10.92;56.68
63976;DHT22;50167;47.958;21.780;2023-04-21T02:29:44;10.24;58.18
63976;DHT22;50167;47.958;21.780;2023-04-21T02:32:10;9.67;59.87
63976;DHT22;50167;47.958;21.780;2023-04-21T02:34:36;9.27;60.87
63976;DHT22;50167;47.958;21.780;2023-04-21T02:37:02;8.94;62.27
63976;DHT22;50167;47.958;21.780;2023-04-21T02:39:29;9.46;62.84
63976;DHT22;50167;47.958;21.780;2023-04-21T02:41:56;10.80;59.86
63976;DHT22;50167;47.958;21.780;2023-04-21T02:44:23;11.76;59.37
63976;DHT22;50167;47.958;21.780;2023-04-21T02:46:49;11.79;57.19
63976;DHT22;50167;47.958;21.780;2023-04-21T02:49:16;10.99;56.39
63976;DHT22;50167;47.958;21.780;2023-04-21T02:51:42;10.35;57.60
63976;DHT22;50167;47.958;21.780;2023-04-21T02:54:08;9.86;59.30
63976;DHT22;50167;47.958;21.780;2023-04-21T02:56:34;9.45;60.83
63976;DHT22;50167;47.958;21.780;2023-04-21T02:59:01;9.08;62.71
63976;DHT22;50167;47.958;21.780;2023-04-21T03:01:27;9.93;65.36
63976;DHT22;50167;47.958;21.780;2023-04-21T03:03:53;11.54;63.35
63976;DHT22;50167;47.958;21.780;2023-04-21T03:06:19;12.40;60.08
63976;DHT22;50167;47.958;21.780;2023-04-21T03:08:45;12.10;53.93
63976;DHT22;50167;47.958;21.780;2023-04-21T03:11:12;11.17;56.17
63976;DHT22;50167;47.958;21.780;2023-04-21T03:13:38;10.44;58.13
63976;DHT22;50167;47.958;21.780;2023-04-21T03:16:05;9.92;60.47
63976;DHT22;50167;47.958;21.780;2023-04-21T03:18:34;9.55;61.84
63976;DHT22;50167;47.958;21.780;2023-04-21T03:21:01;9.29;63.25
63976;DHT22;50167;47.958;21.780;2023-04-21T03:23:27;10.20;61.92
63976;DHT22;50167;47.958;21.780;2023-04-21T03:25:53;11.66;60.38
63976;DHT22;50167;47.958;21.780;2023-04-21T03:28:19;12.34;55.80
63976;DHT22;50167;47.958;21.780;2023-04-21T03:30:45;11.72;56.29
63976;DHT22;50167;47.958;21.780;2023-04-21T03:33:11;11.04;57.76
63976;DHT22;50167;47.958;21.780;2023-04-21T03:35:37;10.56;59.48
63976;DHT22;50167;47.958;21.780;2023-04-21T03:38:03;10.24;60.83
63976;DHT22;50167;47.958;21.780;2023-04-21T03:40:30;9.98;61.98
63976;DHT22;50167;47.958;21.780;2023-04-21T03:42:56;9.80;62.85
63976;DHT22;50167;47.958;21.780;2023-04-21T03:45:22;10.58;62.49
63976;DHT22;50167;47.958;21.780;2023-04-21T03:47:53;11.72;58.60
63976;DHT22;50167;47.958;21.780;2023-04-21T03:50:20;11.66;57.63
63976;DHT22;50167;47.958;21.780;2023-04-21T03:52:46;11.17;59.04
63976;DHT22;50167;47.958;21.780;2023-04-21T03:55:13;10.82;60.06
63976;DHT22;50167;47.958;21.780;2023-04-21T03:57:40;10.51;61.50
63976;DHT22;50167;47.958;21.780;2023-04-21T04:00:08;10.34;61.95
63976;DHT22;50167;47.958;21.780;2023-04-21T04:02:35;10.21;62.62
63976;DHT22;50167;47.958;21.780;2023-04-21T04:05:04;10.73;63.27
63976;DHT22;50167;47.958;21.780;2023-04-21T04:07:32;12.21;58.66
63976;DHT22;50167;47.958;21.780;2023-04-21T04:09:58;12.51;56.12
63976;DHT22;50167;47.958;21.780;2023-04-21T04:12:24;11.92;57.52
63976;DHT22;50167;47.958;21.780;2023-04-21T04:14:51;11.47;58.90
63976;DHT22;50167;47.958;21.780;2023-04-21T04:17:17;11.14;60.15
63976;DHT22;50167;47.958;21.780;2023-04-21T04:19:43;10.89;60.79
63976;DHT22;50167;47.958;21.780;2023-04-21T04:22:09;10.71;61.54
63976;DHT22;50167;47.958;21.780;2023-04-21T04:24:35;10.58;61.48
63976;DHT22;50167;47.958;21.780;2023-04-21T04:27:01;10.53;62.29
63976;DHT22;50167;47.958;21.780;2023-04-21T04:29:29;10.78;62.31
63976;DHT22;50167;47.958;21.780;2023-04-21T04:31:55;11.92;59.98
63976;DHT22;50167;47.958;21.780;2023-04-21T04:34:22;13.16;55.87
63976;DHT22;50167;47.958;21.780;2023-04-21T04:36:49;13.06;54.93
63976;DHT22;50167;47.958;21.780;2023-04-21T04:39:16;12.52;56.30
63976;DHT22;50167;47.958;21.780;2023-04-21T04:41:43;12.04;57.74
63976;DHT22;50167;47.958;21.780;2023-04-21T04:44:09;11.73;58.45
63976;DHT22;50167;47.958;21.780;2023-04-21T04:46:36;11.52;59.38
63976;DHT22;50167;47.958;21.780;2023-04-21T04:49:02;11.38;59.59
63976;DHT22;50167;47.958;21.780;2023-04-21T04:51:28;11.25;60.01
63976;DHT22;50167;47.958;21.780;2023-04-21T04:53:55;11.18;60.19
63976;DHT22;50167;47.958;21.780;2023-04-21T04:56:21;11.15;60.48
63976;DHT22;50167;47.958;21.780;2023-04-21T04:58:48;11.15;60.39
63976;DHT22;50167;47.958;21.780;2023-04-21T05:01:15;11.18;60.51
63976;DHT22;50167;47.958;21.780;2023-04-21T05:03:43;11.22;60.45
63976;DHT22;50167;47.958;21.780;2023-04-21T05:06:09;11.31;60.31
63976;DHT22;50167;47.958;21.780;2023-04-21T05:08:36;11.41;60.06
63976;DHT22;50167;47.958;21.780;2023-04-21T05:11:02;11.51;59.89
63976;DHT22;50167;47.958;21.780;2023-04-21T05:13:28;11.59;59.66
63976;DHT22;50167;47.958;21.780;2023-04-21T05:15:59;11.69;59.29
63976;DHT22;50167;47.958;21.780;2023-04-21T05:18:27;11.79;59.20
63976;DHT22;50167;47.958;21.780;2023-04-21T05:20:55;11.88;59.00
63976;DHT22;50167;47.958;21.780;2023-04-21T05:23:22;11.96;58.88
63976;DHT22;50167;47.958;21.780;2023-04-21T05:25:49;12.07;58.63
63976;DHT22;50167;47.958;21.780;2023-04-21T05:28:15;12.15;58.40
63976;DHT22;50167;47.958;21.780;2023-04-21T05:30:41;12.17;58.05
63976;DHT22;50167;47.958;21.780;2023-04-21T05:33:07;12.23;58.20
63976;DHT22;50167;47.958;21.780;2023-04-21T05:35:34;12.26;58.24
63976;DHT22;50167;47.958;21.780;2023-04-21T05:38:01;12.27;58.02
63976;DHT22;50167;47.958;21.780;2023-04-21T05:40:27;12.31;57.51
63976;DHT22;50167;47.958;21.780;2023-04-21T05:42:53;12.36;57.41
63976;DHT22;50167;47.958;21.780;2023-04-21T05:45:19;12.37;57.59
63976;DHT22;50167;47.958;21.780;2023-04-21T05:47:45;12.41;57.28
63976;DHT22;50167;47.958;21.780;2023-04-21T05:50:11;12.48;57.38
63976;DHT22;50167;47.958;21.780;2023-04-21T05:52:38;12.49;57.24
63976;DHT22;50167;47.958;21.780;2023-04-21T05:55:05;12.54;57.45
63976;DHT22;50167;47.958;21.780;2023-04-21T05:57:32;12.59;57.56
63976;DHT22;50167;47.958;21.780;2023-04-21T05:59:59;12.72;57.42
63976;DHT22;50167;47.958;21.780;2023-04-21T06:02:25;12.82;57.22
63976;DHT22;50167;47.958;21.780;2023-04-21T06:04:52;12.96;57.17
63976;DHT22;50167;47.958;21.780;2023-04-21T06:07:18;13.12;57.38
63976;DHT22;50167;47.958;21.780;2023-04-21T06:09:50;13.31;57.64
63976;DHT22;50167;47.958;21.780;2023-04-21T06:12:16;13.50;57.04
63976;DHT22;50167;47.958;21.780;2023-04-21T06:14:45;13.66;56.41
63976;DHT22;50167;47.958;21.780;2023-04-21T06:17:16;13.77;56.48
63976;DHT22;50167;47.958;21.780;2023-04-21T06:19:43;13.88;56.15
63976;DHT22;50167;47.958;21.780;2023-04-21T06:22:12;13.95;54.93
63976;DHT22;50167;47.958;21.780;2023-04-21T06:28:42;14.10;54.06
63976;DHT22;50167;47.958;21.780;2023-04-21T06:31:08;14.06;54.16
63976;DHT22;50167;47.958;21.780;2023-04-21T06:33:36;14.09;54.36
63976;DHT22;50167;47.958;21.780;2023-04-21T06:36:03;14.20;54.55
63976;DHT22;50167;47.958;21.780;2023-04-21T06:38:29;14.27;53.98
63976;DHT22;50167;47.958;21.780;2023-04-21T06:40:55;14.40;53.37
63976;DHT22;50167;47.958;21.780;2023-04-21T06:43:21;14.50;53.48
63976;DHT22;50167;47.958;21.780;2023-04-21T06:45:47;14.65;53.03
63976;DHT22;50167;47.958;21.780;2023-04-21T06:48:14;14.77;52.94
63976;DHT22;50167;47.958;21.780;2023-04-21T06:50:40;14.86;52.92
63976;DHT22;50167;47.958;21.780;2023-04-21T06:53:09;15.00;53.12
63976;DHT22;50167;47.958;21.780;2023-04-21T06:55:37;15.13;52.72
63976;DHT22;50167;47.958;21.780;2023-04-21T06:58:04;15.27;52.75
63976;DHT22;50167;47.958;21.780;2023-04-21T07:00:30;15.36;52.16
63976;DHT22;50167;47.958;21.780;2023-04-21T07:02:56;15.42;51.99
63976;DHT22;50167;47.958;21.780;2023-04-21T07:05:22;15.47;51.88
63976;DHT22;50167;47.958;21.780;2023-04-21T07:07:48;15.60;51.53
63976;DHT22;50167;47.958;21.780;2023-04-21T07:10:18;15.71;50.82
63976;DHT22;50167;47.958;21.780;2023-04-21T07:12:45;15.84;50.47
63976;DHT22;50167;47.958;21.780;2023-04-21T07:15:11;15.98;50.56
63976;DHT22;50167;47.958;21.780;2023-04-21T07:17:37;16.08;49.95
63976;DHT22;50167;47.958;21.780;2023-04-21T07:20:05;16.16;49.93
63976;DHT22;50167;47.958;21.780;2023-04-21T07:22:32;16.26;49.36
63976;DHT22;50167;47.958;21.780;2023-04-21T07:24:59;16.30;47.90
63976;DHT22;50167;47.958;21.780;2023-04-21T07:27:25;16.32;48.68
63976;DHT22;50167;47.958;21.780;2023-04-21T07:29:51;16.39;47.24
63976;DHT22;50167;47.958;21.780;2023-04-21T07:32:17;16.41;47.15
63976;DHT22;50167;47.958;21.780;2023-04-21T07:34:43;16.41;47.11
63976;DHT22;50167;47.958;21.780;2023-04-21T07:37:11;16.44;46.57
63976;DHT22;50167;47.958;21.780;2023-04-21T07:39:37;16.43;47.33
63976;DHT22;50167;47.958;21.780;2023-04-21T07:42:03;16.51;48.09
63976;DHT22;50167;47.958;21.780;2023-04-21T07:44:33;16.80;47.34
63976;DHT22;50167;47.958;21.780;2023-04-21T07:46:59;17.04;45.02
63976;DHT22;50167;47.958;21.780;2023-04-21T07:49:25;17.14;45.02
63976;DHT22;50167;47.958;21.780;2023-04-21T07:51:51;17.25;45.00
63976;DHT22;50167;47.958;21.780;2023-04-21T07:54:18;17.39;44.46
63976;DHT22;50167;47.958;21.780;2023-04-21T07:56:44;17.56;43.46
63976;DHT22;50167;47.958;21.780;2023-04-21T07:59:11;17.67;42.67
63976;DHT22;50167;47.958;21.780;2023-04-21T08:01:37;17.73;43.41
63976;DHT22;50167;47.958;21.780;2023-04-21T08:04:05;17.84;43.55
63976;DHT22;50167;47.958;21.780;2023-04-21T08:06:36;17.94;41.98
63976;DHT22;50167;47.958;21.780;2023-04-21T08:09:01;17.93;41.07
63976;DHT22;50167;47.958;21.780;2023-04-21T08:11:29;17.85;41.88
63976;DHT22;50167;47.958;21.780;2023-04-21T08:13:55;17.93;41.13
63976;DHT22;50167;47.958;21.780;2023-04-21T08:16:23;17.88;41.41
63976;DHT22;50167;47.958;21.780;2023-04-21T08:18:50;17.87;41.65
63976;DHT22;50167;47.958;21.780;2023-04-21T08:21:16;17.94;41.94
63976;DHT22;50167;47.958;21.780;2023-04-21T08:23:42;17.98;42.01
63976;DHT22;50167;47.958;21.780;2023-04-21T08:26:08;18.08;40.44
63976;DHT22;50167;47.958;21.780;2023-04-21T08:28:35;18.08;41.07
63976;DHT22;50167;47.958;21.780;2023-04-21T08:31:08;18.11;41.01
63976;DHT22;50167;47.958;21.780;2023-04-21T08:33:34;18.18;40.34
63976;DHT22;50167;47.958;21.780;2023-04-21T08:36:00;18.21;40.56
63976;DHT22;50167;47.958;21.780;2023-04-21T08:38:27;18.28;40.63
63976;DHT22;50167;47.958;21.780;2023-04-21T08:40:55;18.42;40.86
63976;DHT22;50167;47.958;21.780;2023-04-21T08:43:22;18.56;39.66
63976;DHT22;50167;47.958;21.780;2023-04-21T08:45:49;18.63;39.79
63976;DHT22;50167;47.958;21.780;2023-04-21T08:48:17;18.66;40.23
63976;DHT22;50167;47.958;21.780;2023-04-21T08:50:48;18.70;40.49
63976;DHT22;50167;47.958;21.780;2023-04-21T08:53:16;18.77;39.84
63976;DHT22;50167;47.958;21.780;2023-04-21T08:55:43;18.81;41.13
63976;DHT22;50167;47.958;21.780;2023-04-21T08:58:13;18.91;39.98
63976;DHT22;50167;47.958;21.780;2023-04-21T09:00:39;18.95;39.75
63976;DHT22;50167;47.958;21.780;2023-04-21T09:03:07;19.01;39.93
63976;DHT22;50167;47.958;21.780;2023-04-21T09:05:34;19.05;39.60
63976;DHT22;50167;47.958;21.780;2023-04-21T09:08:12;19.04;39.07
63976;DHT22;50167;47.958;21.780;2023-04-21T09:10:49;19.08;40.51
63976;DHT22;50167;47.958;21.780;2023-04-21T09:13:18;19.24;37.98
63976;DHT22;50167;47.958;21.780;2023-04-21T09:15:48;19.39;38.34
63976;DHT22;50167;47.958;21.780;2023-04-21T09:18:19;19.31;38.25
63976;DHT22;50167;47.958;21.780;2023-04-21T09:21:06;19.11;37.87
63976;DHT22;50167;47.958;21.780;2023-04-21T09:23:49;19.00;35.86
63976;DHT22;50167;47.958;21.780;2023-04-21T09:26:19;19.04;38.14
63976;DHT22;50167;47.958;21.780;2023-04-21T09:28:49;19.15;38.39
63976;DHT22;50167;47.958;21.780;2023-04-21T09:31:22;19.28;36.70
63976;DHT22;50167;47.958;21.780;2023-04-21T09:33:52;19.34;37.33
63976;DHT22;50167;47.958;21.780;2023-04-21T09:36:21;19.41;38.99
63976;DHT22;50167;47.958;21.780;2023-04-21T09:38:57;19.65;37.84
63976;DHT22;50167;47.958;21.780;2023-04-21T09:41:23;19.76;36.74
63976;DHT22;50167;47.958;21.780;2023-04-21T09:43:50;19.81;37.46
63976;DHT22;50167;47.958;21.780;2023-04-21T09:46:18;19.99;35.07
63976;DHT22;50167;47.958;21.780;2023-04-21T09:48:47;19.96;36.00
63976;DHT22;50167;47.958;21.780;2023-04-21T09:51:16;20.10;36.17
63976;DHT22;50167;47.958;21.780;2023-04-21T09:53:44;20.25;36.98
63976;DHT22;50167;47.958;21.780;2023-04-21T09:56:14;20.48;37.35
63976;DHT22;50167;47.958;21.780;2023-04-21T09:58:47;20.69;35.79
63976;DHT22;50167;47.958;21.780;2023-04-21T10:01:16;20.80;37.18
63976;DHT22;50167;47.958;21.780;2023-04-21T10:03:43;21.03;36.88
63976;DHT22;50167;47.958;21.780;2023-04-21T10:06:11;21.22;36.06
63976;DHT22;50167;47.958;21.780;2023-04-21T10:08:37;21.25;36.16
63976;DHT22;50167;47.958;21.780;2023-04-21T10:11:05;21.36;34.93
63976;DHT22;50167;47.958;21.780;2023-04-21T10:13:32;21.54;33.59
63976;DHT22;50167;47.958;21.780;2023-04-21T10:16:06;21.44;34.35
63976;DHT22;50167;47.958;21.780;2023-04-21T10:18:44;21.37;33.21
63976;DHT22;50167;47.958;21.780;2023-04-21T10:21:18;21.30;34.06
63976;DHT22;50167;47.958;21.780;2023-04-21T10:23:48;21.31;33.84
63976;DHT22;50167;47.958;21.780;2023-04-21T10:26:31;21.36;34.39
63976;DHT22;50167;47.958;21.780;2023-04-21T10:29:04;21.49;34.70
63976;DHT22;50167;47.958;21.780;2023-04-21T10:31:33;21.75;32.75
63976;DHT22;50167;47.958;21.780;2023-04-21T10:39:33;21.58;32.09
63976;DHT22;50167;47.958;21.780;2023-04-21T10:42:19;21.66;32.21
63976;DHT22;50167;47.958;21.780;2023-04-21T10:47:29;22.05;32.14
63976;DHT22;50167;47.958;21.780;2023-04-21T10:50:00;22.23;32.71
63976;DHT22;50167;47.958;21.780;2023-04-21T10:52:33;22.47;32.21
63976;DHT22;50167;47.958;21.780;2023-04-21T10:55:03;22.64;30.57
63976;DHT22;50167;47.958;21.780;2023-04-21T10:57:33;22.70;30.98
63976;DHT22;50167;47.958;21.780;2023-04-21T11:00:00;22.81;31.60
63976;DHT22;50167;47.958;21.780;2023-04-21T11:02:26;22.96;31.49
63976;DHT22;50167;47.958;21.780;2023-04-21T11:04:53;23.13;29.46
63976;DHT22;50167;47.958;21.780;2023-04-21T11:07:26;23.15;29.08
63976;DHT22;50167;47.958;21.780;2023-04-21T11:10:06;22.93;29.16
63976;DHT22;50167;47.958;21.780;2023-04-21T11:12:36;22.74;29.18
63976;DHT22;50167;47.958;21.780;2023-04-21T11:15:04;22.71;29.89
63976;DHT22;50167;47.958;21.780;2023-04-21T11:17:33;22.67;28.30
63976;DHT22;50167;47.958;21.780;2023-04-21T11:20:01;22.41;27.35
63976;DHT22;50167;47.958;21.780;2023-04-21T11:22:29;21.97;27.21
63976;DHT22;50167;47.958;21.780;2023-04-21T11:24:56;21.64;28.30
63976;DHT22;50167;47.958;21.780;2023-04-21T11:27:25;21.57;29.20
63976;DHT22;50167;47.958;21.780;2023-04-21T11:29:52;21.70;30.91
63976;DHT22;50167;47.958;21.780;2023-04-21T11:32:19;22.07;30.08
63976;DHT22;50167;47.958;21.780;2023-04-21T11:34:46;22.41;29.51
63976;DHT22;50167;47.958;21.780;2023-04-21T11:37:28;22.41;27.96
63976;DHT22;50167;47.958;21.780;2023-04-21T11:39:58;22.02;28.59
63976;DHT22;50167;47.958;21.780;2023-04-21T11:42:25;21.73;29.12
63976;DHT22;50167;47.958;21.780;2023-04-21T11:44:54;21.76;29.97
63976;DHT22;50167;47.958;21.780;2023-04-21T11:47:27;21.99;29.97
63976;DHT22;50167;47.958;21.780;2023-04-21T11:49:57;22.21;29.72
63976;DHT22;50167;47.958;21.780;2023-04-21T11:52:33;22.45;28.78
63976;DHT22;50167;47.958;21.780;2023-04-21T11:55:13;22.60;27.89
63976;DHT22;50167;47.958;21.780;2023-04-21T11:57:41;22.88;28.16
63976;DHT22;50167;47.958;21.780;2023-04-21T12:00:10;22.99;27.86
63976;DHT22;50167;47.958;21.780;2023-04-21T12:02:37;23.02;27.11
63976;DHT22;50167;47.958;21.780;2023-04-21T12:05:10;22.98;27.40
63976;DHT22;50167;47.958;21.780;2023-04-21T12:07:45;22.99;27.55
63976;DHT22;50167;47.958;21.780;2023-04-21T12:10:20;23.00;28.16
63976;DHT22;50167;47.958;21.780;2023-04-21T12:12:47;22.99;27.46
63976;DHT22;50167;47.958;21.780;2023-04-21T12:15:19;22.85;26.85
63976;DHT22;50167;47.958;21.780;2023-04-21T12:17:53;22.91;28.55
63976;DHT22;50167;47.958;21.780;2023-04-21T12:20:23;23.18;27.19
63976;DHT22;50167;47.958;21.780;2023-04-21T12:22:49;23.54;27.22
63976;DHT22;50167;47.958;21.780;2023-04-21T12:25:16;23.80;26.62
63976;DHT22;50167;47.958;21.780;2023-04-21T12:27:56;23.91;25.68
63976;DHT22;50167;47.958;21.780;2023-04-21T12:30:25;23.75;25.14
63976;DHT22;50167;47.958;21.780;2023-04-21T12:32:51;23.51;25.55
63976;DHT22;50167;47.958;21.780;2023-04-21T12:35:19;23.22;26.06
63976;DHT22;50167;47.958;21.780;2023-04-21T12:37:45;22.98;26.85
63976;DHT22;50167;47.958;21.780;2023-04-21T12:40:12;22.83;27.14
63976;DHT22;50167;47.958;21.780;2023-04-21T12:42:38;22.78;27.11
63976;DHT22;50167;47.958;21.780;2023-04-21T12:45:05;22.64;26.52
63976;DHT22;50167;47.958;21.780;2023-04-21T12:47:31;22.54;26.49
63976;DHT22;50167;47.958;21.780;2023-04-21T12:49:58;22.96;26.85
63976;DHT22;50167;47.958;21.780;2023-04-21T12:52:24;23.62;26.23
63976;DHT22;50167;47.958;21.780;2023-04-21T12:54:51;24.49;25.15
63976;DHT22;50167;47.958;21.780;2023-04-21T12:57:17;25.55;25.33
63976;DHT22;50167;47.958;21.780;2023-04-21T12:59:43;26.53;23.86
63976;DHT22;50167;47.958;21.780;2023-04-21T13:02:11;27.07;24.14
63976;DHT22;50167;47.958;21.780;2023-04-21T13:04:37;27.34;22.30
63976;DHT22;50167;47.958;21.780;2023-04-21T13:07:03;27.75;21.87
63976;DHT22;50167;47.958;21.780;2023-04-21T13:09:30;28.07;20.94
63976;DHT22;50167;47.958;21.780;2023-04-21T13:11:57;28.24;20.11
63976;DHT22;50167;47.958;21.780;2023-04-21T13:14:23;27.82;19.91
63976;DHT22;50167;47.958;21.780;2023-04-21T13:16:52;27.18;22.11
63976;DHT22;50167;47.958;21.780;2023-04-21T13:19:18;26.87;23.03
63976;DHT22;50167;47.958;21.780;2023-04-21T13:21:44;27.18;21.39
63976;DHT22;50167;47.958;21.780;2023-04-21T13:24:11;27.62;21.11
63976;DHT22;50167;47.958;21.780;2023-04-21T13:26:39;28.30;20.40
63976;DHT22;50167;47.958;21.780;2023-04-21T13:29:05;29.16;20.96
63976;DHT22;50167;47.958;21.780;2023-04-21T13:31:31;29.91;19.43
63976;DHT22;50167;47.958;21.780;2023-04-21T13:34:00;30.29;18.50
63976;DHT22;50167;47.958;21.780;2023-04-21T13:36:27;30.20;18.93
63976;DHT22;50167;47.958;21.780;2023-04-21T13:38:53;30.12;19.15
63976;DHT22;50167;47.958;21.780;2023-04-21T13:41:21;29.85;18.91
63976;DHT22;50167;47.958;21.780;2023-04-21T13:43:48;29.57;19.03
63976;DHT22;50167;47.958;21.780;2023-04-21T13:46:14;29.41;18.85
63976;DHT22;50167;47.958;21.780;2023-04-21T13:48:41;29.41;18.72
63976;DHT22;50167;47.958;21.780;2023-04-21T13:51:07;28.92;18.63
63976;DHT22;50167;47.958;21.780;2023-04-21T13:53:34;28.30;19.41
63976;DHT22;50167;47.958;21.780;2023-04-21T13:56:01;27.76;19.94
63976;DHT22;50167;47.958;21.780;2023-04-21T13:58:27;28.02;20.40
63976;DHT22;50167;47.958;21.780;2023-04-21T14:00:56;28.50;18.64
63976;DHT22;50167;47.958;21.780;2023-04-21T14:03:22;28.81;18.34
63976;DHT22;50167;47.958;21.780;2023-04-21T14:05:48;29.14;18.10
63976;DHT22;50167;47.958;21.780;2023-04-21T14:08:14;28.67;18.44
63976;DHT22;50167;47.958;21.780;2023-04-21T14:10:40;27.71;19.31
63976;DHT22;50167;47.958;21.780;2023-04-21T14:13:10;26.59;19.94
63976;DHT22;50167;47.958;21.780;2023-04-21T14:15:36;25.60;20.73
63976;DHT22;50167;47.958;21.780;2023-04-21T14:18:02;24.71;21.77
63976;DHT22;50167;47.958;21.780;2023-04-21T14:20:29;23.98;22.55
63976;DHT22;50167;47.958;21.780;2023-04-21T14:22:55;23.47;23.44
63976;DHT22;50167;47.958;21.780;2023-04-21T14:25:22;23.68;23.94
63976;DHT22;50167;47.958;21.780;2023-04-21T14:27:49;24.82;23.42
63976;DHT22;50167;47.958;21.780;2023-04-21T14:30:15;26.03;21.93
63976;DHT22;50167;47.958;21.780;2023-04-21T14:32:41;26.87;21.18
63976;DHT22;50167;47.958;21.780;2023-04-21T14:35:12;27.62;20.04
63976;DHT22;50167;47.958;21.780;2023-04-21T14:37:40;28.04;19.87
63976;DHT22;50167;47.958;21.780;2023-04-21T14:40:07;28.16;18.76
63976;DHT22;50167;47.958;21.780;2023-04-21T14:42:34;27.75;19.71
63976;DHT22;50167;47.958;21.780;2023-04-21T14:45:00;27.71;20.52
63976;DHT22;50167;47.958;21.780;2023-04-21T14:47:26;27.82;19.26
63976;DHT22;50167;47.958;21.780;2023-04-21T14:49:53;27.15;18.84
63976;DHT22;50167;47.958;21.780;2023-04-21T14:52:20;26.35;20.15
63976;DHT22;50167;47.958;21.780;2023-04-21T14:54:48;25.60;20.76
63976;DHT22;50167;47.958;21.780;2023-04-21T14:57:15;25.12;21.57
63976;DHT22;50167;47.958;21.780;2023-04-21T14:59:43;24.95;21.27
63976;DHT22;50167;47.958;21.780;2023-04-21T15:02:11;24.70;20.92
63976;DHT22;50167;47.958;21.780;2023-04-21T15:04:38;24.33;22.43
63976;DHT22;50167;47.958;21.780;2023-04-21T15:07:05;24.19;22.06
63976;DHT22;50167;47.958;21.780;2023-04-21T15:09:31;23.95;22.40
63976;DHT22;50167;47.958;21.780;2023-04-21T15:11:58;23.74;23.11
63976;DHT22;50167;47.958;21.780;2023-04-21T15:14:24;23.48;23.67
63976;DHT22;50167;47.958;21.780;2023-04-21T15:16:50;23.20;23.79
63976;DHT22;50167;47.958;21.780;2023-04-21T15:19:18;22.85;23.68
63976;DHT22;50167;47.958;21.780;2023-04-21T15:21:44;22.33;24.27
63976;DHT22;50167;47.958;21.780;2023-04-21T15:24:11;21.95;24.71
63976;DHT22;50167;47.958;21.780;2023-04-21T15:26:37;21.65;25.32
63976;DHT22;50167;47.958;21.780;2023-04-21T15:29:03;21.52;25.42
63976;DHT22;50167;47.958;21.780;2023-04-21T15:31:30;21.38;25.65